Details From KSAN - San Diego Intl
To MMSD - Los Cabos Intl
Flight Number -
Tags Generated
Created
Modified
Stats Distance 700 nm / 1,297 km
Max Altitude 0 ft / 0 m
Waypoints 3
Social Downloads 2
Likes 0
Share VATSIM

Download

Looking for another format? Having issues loading an existing format? Contact us
Advertisement - Login to hide

Notes

Generated

Route

KSAN SJD MMSD

ID Type Via Altitude Latitude Longitude Leg Dist Tot Dist Heading (true) Name
O KSAN APT - 0 ft / 0 m 32.73712˚ -117.20435˚ - 0 nm - -
SJD VOR - 0 ft / 0 m 23.14616˚ -109.72154˚ 699 nm 699 nm 144° / 147° CABOS VOR-DME
O MMSD APT - 0 ft / 0 m 23.16528˚ -109.72264˚ 1 nm 700 nm 357° / 357° -

Altitude Profile

Advertisement - Login to hide

Weather


0- 5 10 15 20 25 30 35+ Temperature / ° C

Clouds and Precipitation
Forecast for 2018-05-24 18:00 UTC. Updated 2 hours ago

Ground ~20,000 ft ~40,000 ft Winds

KSAN

Details ICAO KSAN (SAN)
Name San Diego Intl
Region United States
Timezone America/Los_Angeles (UTC-7.0)
Stats Elevation 17 ft / 5 m (AMSL)
Location 32.733556° -117.189658°
Runways 1
Magnetic Variation 11.487° E

METAR

KSAN 241851Z 33009KT 10SM BKN020 OVC026 17/12 A3012 RMK AO2 SLP197 T01720117

Decode

TAF

KSAN 241738Z 2418/2524 28008KT P6SM BKN015 OVC025 FM241900 28009KT P6SM BKN025 FM250300 29005KT P6SM OVC017 FM251500 VRB03KT P6SM BKN022 FM251700 29008KT P6SM SCT025 FM252000 29013G19KT P6SM SCT025

Decode

Departure Runways

ID Width Length Bearing (true) Bearing (mag) Surface Threshold Offset Overrun Length
09 200 ft / 61 m 9,387 ft / 2,861 m 106.07° 94.58° Asphalt 699 ft / 213 m 269 ft / 82 m
27 200 ft / 61 m 9,387 ft / 2,861 m 286.08° 274.59° Asphalt 1,811 ft / 552 m 0 ft / 0 m

MMSD

Details ICAO MMSD (SJD)
Name LOS CABOS INTL
Region Mexico
Timezone America/Mazatlan (UTC-6.0)
Stats Elevation 374 ft / 114 m (AMSL)
Location 23.151850° -109.721044°
Runways 1
Magnetic Variation 8.288° E

METAR

MMSD 241941Z 14008KT 12SM SKC 33/05 A2994 RMK RTS

Decode

TAF

Not found

Destination Runways

ID Width Length Bearing (true) Bearing (mag) Surface Threshold Offset Overrun Length
16 148 ft / 45 m 9,857 ft / 3,004 m 173.75° 165.46° Asphalt 0 ft / 0 m 215 ft / 66 m
34 148 ft / 45 m 9,857 ft / 3,004 m 353.75° 345.46° Asphalt 0 ft / 0 m 200 ft / 61 m

Popular Alternatives